Terminal Aerodrome Forecast
Issued by NWS

Home | Current Version | Previous Version | Text Only | Print | Product List | Glossary On
Versions: 1 2 3 4 5 6 7 8 9 10 11 12 13 14 15 16 17 18 19 20 21
000
FTUS43 KGRR 010500
TAFBTL
TAF
KBTL 010540Z 0106/0206 17007KT 2SM -SN OVC050
     FM010700 17007KT 2SM -SN OVC015
     FM011100 16004KT 4SM -SN OVC015
     FM011400 19005KT P6SM OVC020=

USA.gov is the U.S. government's official web portal to all federal, state and local government web resources and services.